createdAt,value
2018-12-29T00:00:59.037Z,6.06
2018-12-29T00:01:59.035Z,6.09
2018-12-29T00:02:59.027Z,6.09
2018-12-29T00:03:59.025Z,6.06
2018-12-29T00:04:59.001Z,6.06
2018-12-29T00:05:59.008Z,6.11
2018-12-29T00:06:58.973Z,6.04
2018-12-29T00:07:58.965Z,6.09
2018-12-29T00:08:58.987Z,6.01
2018-12-29T00:09:58.961Z,6.03
2018-12-29T00:10:58.939Z,6.00
2018-12-29T00:11:58.943Z,6.01
2018-12-29T00:12:58.912Z,6.04
2018-12-29T00:13:58.920Z,6.03
2018-12-29T00:14:58.893Z,6.09
2018-12-29T00:15:58.879Z,6.09
2018-12-29T00:16:58.883Z,6.11
2018-12-29T00:17:58.875Z,6.08
2018-12-29T00:18:58.897Z,6.12
2018-12-29T00:19:58.836Z,6.11
2018-12-29T00:20:58.828Z,6.04
2018-12-29T00:21:58.817Z,6.12
2018-12-29T00:22:58.809Z,6.08
2018-12-29T00:23:58.827Z,6.04
2018-12-29T00:24:58.792Z,6.08
2018-12-29T00:25:58.780Z,6.04
2018-12-29T00:26:58.771Z,6.12
2018-12-29T00:27:58.760Z,6.09
2018-12-29T00:28:58.751Z,6.09
2018-12-29T00:29:58.774Z,6.09
2018-12-29T00:30:58.721Z,6.04
2018-12-29T00:31:58.708Z,6.01
2018-12-29T00:32:58.725Z,6.11
2018-12-29T00:33:58.689Z,6.12
2018-12-29T00:34:58.698Z,6.17
2018-12-29T00:35:58.673Z,6.12
2018-12-29T00:36:58.658Z,6.11
2018-12-29T00:37:58.650Z,6.06
2018-12-29T00:38:58.635Z,6.03
2018-12-29T00:39:58.646Z,6.11
2018-12-29T00:40:58.629Z,6.06
2018-12-29T00:41:58.608Z,6.15
2018-12-29T00:42:58.594Z,6.01
2018-12-29T00:43:58.586Z,6.14
2018-12-29T00:45:02.382Z,6.14
2018-12-29T00:45:58.568Z,6.06
2018-12-29T00:46:58.568Z,6.21
2018-12-29T00:47:58.546Z,6.03
2018-12-29T00:48:58.539Z,6.17
2018-12-29T00:49:58.551Z,6.09
2018-12-29T00:50:58.511Z,6.11
2018-12-29T00:51:58.509Z,6.03
2018-12-29T00:52:58.496Z,6.06
2018-12-29T00:53:58.479Z,6.15
2018-12-29T00:54:58.487Z,6.06
2018-12-29T00:55:58.462Z,6.12
2018-12-29T00:56:58.446Z,6.04
2018-12-29T00:57:58.439Z,6.03
2018-12-29T00:58:58.442Z,6.04
2018-12-29T00:59:58.442Z,6.18
2018-12-29T01:00:58.405Z,6.17
2018-12-29T01:01:58.391Z,6.08
2018-12-29T01:02:58.382Z,6.15
2018-12-29T01:03:58.379Z,6.17
2018-12-29T01:04:58.396Z,6.11
2018-12-29T01:05:58.352Z,6.11
2018-12-29T01:06:58.342Z,6.12
2018-12-29T01:07:58.337Z,6.18
2018-12-29T01:08:58.324Z,6.21
2018-12-29T01:09:58.340Z,6.17
2018-12-29T01:10:58.317Z,6.19
2018-12-29T01:11:58.292Z,6.22
2018-12-29T01:12:58.282Z,6.19
2018-12-29T01:13:58.266Z,6.12
2018-12-29T01:14:58.290Z,6.19
2018-12-29T01:15:58.249Z,6.09
2018-12-29T01:16:58.232Z,6.11
2018-12-29T01:17:58.225Z,6.14
2018-12-29T01:18:58.215Z,6.19
2018-12-29T01:19:58.213Z,6.12
2018-12-29T01:20:58.212Z,6.17
2018-12-29T01:21:58.188Z,6.06
2018-12-29T01:22:58.172Z,6.12
2018-12-29T01:23:58.160Z,6.19
2018-12-29T01:24:58.162Z,6.18
2018-12-29T01:25:58.164Z,6.22
2018-12-29T01:26:58.134Z,6.28
2018-12-29T01:27:58.126Z,6.18
2018-12-29T01:28:58.109Z,6.22
2018-12-29T01:29:58.100Z,6.19
2018-12-29T01:30:58.104Z,6.14
2018-12-29T01:31:58.076Z,6.15
2018-12-29T01:32:58.069Z,6.14
2018-12-29T01:33:58.057Z,6.14
2018-12-29T01:34:58.044Z,6.21
2018-12-29T01:35:58.052Z,6.17
2018-12-29T01:36:58.023Z,6.21
2018-12-29T01:37:58.011Z,6.17
2018-12-29T01:38:58.008Z,6.14
2018-12-29T01:39:58.005Z,6.19
2018-12-29T01:40:58.004Z,6.21
2018-12-29T01:41:57.970Z,6.21
2018-12-29T01:42:57.959Z,6.18
2018-12-29T01:43:57.957Z,6.11
2018-12-29T01:44:57.950Z,6.22
2018-12-29T01:45:57.954Z,6.19
2018-12-29T01:46:57.915Z,6.18
2018-12-29T01:47:57.914Z,6.12
2018-12-29T01:48:57.891Z,6.18
2018-12-29T01:49:57.885Z,6.12
2018-12-29T01:50:57.910Z,6.12
2018-12-29T01:51:57.861Z,6.06
2018-12-29T01:52:57.849Z,6.17
2018-12-29T01:53:57.841Z,6.17
2018-12-29T01:54:57.833Z,6.06
2018-12-29T01:55:57.842Z,6.12
2018-12-29T01:56:57.814Z,6.15
2018-12-29T01:57:57.803Z,6.18
2018-12-29T01:58:57.832Z,6.17
2018-12-29T01:59:57.779Z,6.18
2018-12-29T02:00:57.796Z,6.21
2018-12-29T02:01:57.757Z,6.15
2018-12-29T02:02:57.751Z,6.19
2018-12-29T02:03:57.736Z,6.25
2018-12-29T02:04:57.725Z,6.28
2018-12-29T02:05:57.743Z,6.15
2018-12-29T02:06:57.707Z,6.12
2018-12-29T02:07:57.695Z,6.15
2018-12-29T02:08:57.687Z,6.17
2018-12-29T02:09:57.669Z,6.18
2018-12-29T02:10:57.661Z,6.22
2018-12-29T02:11:57.682Z,6.12
2018-12-29T02:12:57.644Z,6.17
2018-12-29T02:13:57.633Z,6.17
2018-12-29T02:14:57.619Z,6.17
2018-12-29T02:15:57.607Z,6.15
2018-12-29T02:16:57.617Z,6.19
2018-12-29T02:17:57.582Z,6.11
2018-12-29T02:18:57.583Z,6.15
2018-12-29T02:19:57.574Z,6.28
2018-12-29T02:20:57.555Z,6.14
2018-12-29T02:21:57.575Z,6.17
2018-12-29T02:22:57.531Z,6.17
2018-12-29T02:23:57.527Z,6.22
2018-12-29T02:24:57.521Z,6.14
2018-12-29T02:25:57.508Z,6.09
2018-12-29T02:26:57.517Z,6.30
2018-12-29T02:27:57.477Z,6.22
2018-12-29T02:28:57.470Z,6.15
2018-12-29T02:29:57.467Z,6.21
2018-12-29T02:30:57.450Z,6.17
2018-12-29T02:31:57.470Z,6.12
2018-12-29T02:32:57.429Z,6.15
2018-12-29T02:33:57.418Z,6.21
2018-12-29T02:34:57.401Z,6.19
2018-12-29T02:35:57.402Z,6.19
2018-12-29T02:36:57.418Z,6.14
2018-12-29T02:37:57.377Z,6.19
2018-12-29T02:38:57.365Z,6.12
2018-12-29T02:39:57.359Z,6.09
2018-12-29T02:40:57.340Z,6.12
2018-12-29T02:41:57.363Z,6.27
2018-12-29T02:42:57.322Z,6.19
2018-12-29T02:43:57.323Z,6.22
2018-12-29T02:44:57.295Z,6.11
2018-12-29T02:45:57.290Z,6.15
2018-12-29T02:46:57.338Z,6.11
2018-12-29T02:47:57.270Z,6.18
2018-12-29T02:48:57.259Z,6.15
2018-12-29T02:49:57.254Z,6.18
2018-12-29T02:50:57.231Z,6.28
2018-12-29T02:51:57.373Z,6.09
2018-12-29T02:52:57.220Z,6.11
2018-12-29T02:53:57.199Z,6.25
2018-12-29T02:54:57.191Z,6.17
2018-12-29T02:55:57.180Z,6.22
2018-12-29T02:56:57.169Z,6.14
2018-12-29T02:57:57.269Z,6.27
2018-12-29T02:58:57.149Z,6.09
2018-12-29T02:59:57.146Z,6.22
2018-12-29T03:00:57.130Z,6.14
2018-12-29T03:01:57.120Z,6.15
2018-12-29T03:02:57.126Z,6.04
2018-12-29T03:03:57.095Z,6.12
2018-12-29T03:04:57.091Z,6.14
2018-12-29T03:05:57.080Z,6.18
2018-12-29T03:06:57.069Z,6.19
2018-12-29T03:07:57.109Z,6.19
2018-12-29T03:08:57.045Z,6.18
2018-12-29T03:09:57.033Z,6.11
2018-12-29T03:10:57.038Z,6.15
2018-12-29T03:11:57.016Z,6.18
2018-12-29T03:12:57.023Z,6.18
2018-12-29T03:13:56.990Z,6.17
2018-12-29T03:14:56.979Z,6.11
2018-12-29T03:15:56.973Z,6.12
2018-12-29T03:16:56.969Z,6.08
2018-12-29T03:17:56.960Z,6.06
2018-12-29T03:18:56.950Z,6.14
2018-12-29T03:19:56.929Z,6.11
2018-12-29T03:20:56.918Z,6.06
2018-12-29T03:21:56.915Z,6.08
2018-12-29T03:22:56.910Z,6.09
2018-12-29T03:23:56.887Z,6.01
2018-12-29T03:24:56.877Z,6.06
2018-12-29T03:25:56.871Z,6.03
2018-12-29T03:26:56.846Z,6.06
2018-12-29T03:27:56.879Z,5.96
2018-12-29T03:28:56.830Z,5.93
2018-12-29T03:29:56.821Z,6.04
2018-12-29T03:30:56.808Z,6.06
2018-12-29T03:31:56.799Z,6.04
2018-12-29T03:32:56.862Z,6.03
2018-12-29T03:33:56.787Z,6.04
2018-12-29T03:34:56.767Z,5.99
2018-12-29T03:35:56.753Z,6.01
2018-12-29T03:36:56.744Z,6.03
2018-12-29T03:37:56.735Z,5.96
2018-12-29T03:38:56.755Z,6.08
2018-12-29T03:39:56.726Z,6.04
2018-12-29T03:40:56.699Z,6.03
2018-12-29T03:41:56.697Z,6.06
2018-12-29T03:42:56.679Z,5.99
2018-12-29T03:43:56.687Z,6.01
2018-12-29T03:44:56.657Z,6.00
2018-12-29T03:45:56.657Z,5.96
2018-12-29T03:46:56.639Z,6.00
2018-12-29T03:47:56.630Z,6.03
2018-12-29T03:48:56.646Z,5.99
2018-12-29T03:49:56.607Z,5.99
2018-12-29T03:50:56.593Z,6.03
2018-12-29T03:51:56.579Z,6.04
2018-12-29T03:52:56.574Z,6.03
2018-12-29T03:53:56.580Z,5.97
2018-12-29T03:54:56.553Z,6.03
2018-12-29T03:55:56.539Z,6.08
2018-12-29T03:56:56.536Z,6.03
2018-12-29T03:57:56.517Z,6.01
2018-12-29T03:58:56.558Z,5.99
2018-12-29T03:59:56.497Z,6.04
2018-12-29T04:00:56.485Z,6.09
2018-12-29T04:01:56.486Z,6.01
2018-12-29T04:02:56.474Z,6.03
2018-12-29T04:03:57.075Z,6.09
2018-12-29T04:04:56.453Z,6.08
2018-12-29T04:05:56.433Z,6.03
2018-12-29T04:06:56.425Z,6.11
2018-12-29T04:07:56.416Z,6.11
2018-12-29T04:08:56.435Z,6.06
2018-12-29T04:09:56.388Z,5.96
2018-12-29T04:10:56.389Z,6.03
2018-12-29T04:11:56.379Z,6.01
2018-12-29T04:12:56.363Z,6.01
2018-12-29T04:13:56.365Z,5.96
2018-12-29T04:14:56.344Z,5.99
2018-12-29T04:15:58.211Z,5.93
2018-12-29T04:16:56.322Z,5.93
2018-12-29T04:17:56.313Z,6.09
2018-12-29T04:18:56.324Z,6.00
2018-12-29T04:19:56.289Z,6.09
2018-12-29T04:20:56.289Z,6.01
2018-12-29T04:21:56.271Z,6.04
2018-12-29T04:22:56.258Z,5.94
2018-12-29T04:23:56.272Z,5.93
2018-12-29T04:24:56.236Z,5.93
2018-12-29T04:25:56.221Z,5.93
2018-12-29T04:26:56.209Z,5.91
2018-12-29T04:27:56.201Z,5.90
2018-12-29T04:28:56.198Z,5.96
2018-12-29T04:29:56.194Z,5.91
2018-12-29T04:30:56.173Z,5.96
2018-12-29T04:31:56.167Z,5.91
2018-12-29T04:32:56.148Z,5.91
2018-12-29T04:33:56.132Z,5.96
2018-12-29T04:34:56.148Z,5.86
2018-12-29T04:35:56.113Z,6.00
2018-12-29T04:36:56.120Z,5.91
2018-12-29T04:37:56.090Z,5.97
2018-12-29T04:38:56.082Z,5.93
2018-12-29T04:39:56.093Z,5.93
2018-12-29T04:40:56.080Z,5.90
2018-12-29T04:41:56.078Z,5.93
2018-12-29T04:42:56.042Z,5.91
2018-12-29T04:43:56.030Z,5.97
2018-12-29T04:44:56.040Z,5.96
2018-12-29T04:45:56.018Z,5.91
2018-12-29T04:46:56.001Z,5.93
2018-12-29T04:47:55.989Z,5.97
2018-12-29T04:48:55.983Z,5.86
2018-12-29T04:49:55.997Z,5.99
2018-12-29T04:50:55.952Z,5.99
2018-12-29T04:51:55.951Z,5.90
2018-12-29T04:52:55.941Z,5.93
2018-12-29T04:53:55.932Z,5.86
2018-12-29T04:54:55.937Z,5.94
2018-12-29T04:55:55.907Z,6.04
2018-12-29T04:56:55.889Z,5.91
2018-12-29T04:57:55.886Z,5.93
2018-12-29T04:58:55.872Z,5.94
2018-12-29T04:59:55.936Z,5.91
2018-12-29T05:00:55.846Z,5.90
2018-12-29T05:01:55.836Z,5.93
2018-12-29T05:02:55.831Z,5.94
2018-12-29T05:03:55.841Z,5.94
2018-12-29T05:04:55.836Z,5.93
2018-12-29T05:05:55.792Z,6.04
2018-12-29T05:06:55.786Z,5.94
2018-12-29T05:07:55.770Z,5.99
2018-12-29T05:08:55.768Z,5.94
2018-12-29T05:09:55.808Z,5.99
2018-12-29T05:10:55.740Z,5.94
2018-12-29T05:11:55.734Z,5.93
2018-12-29T05:12:55.721Z,5.91
2018-12-29T05:13:55.705Z,6.01
2018-12-29T05:14:55.708Z,5.99
2018-12-29T05:15:55.714Z,6.00
2018-12-29T05:16:55.686Z,5.94
2018-12-29T05:17:55.666Z,5.97
2018-12-29T05:18:55.655Z,5.96
2018-12-29T05:19:55.644Z,5.93
2018-12-29T05:20:55.656Z,5.96
2018-12-29T05:21:55.621Z,5.93
2018-12-29T05:22:55.620Z,6.00
2018-12-29T05:23:55.602Z,5.96
2018-12-29T05:24:55.595Z,5.89
2018-12-29T05:25:55.612Z,5.89
2018-12-29T05:26:55.576Z,5.94
2018-12-29T05:27:55.566Z,5.93
2018-12-29T05:28:55.552Z,5.91
2018-12-29T05:29:55.540Z,5.96
2018-12-29T05:30:55.550Z,5.89
2018-12-29T05:31:55.518Z,5.99
2018-12-29T05:32:55.516Z,5.91
2018-12-29T05:33:55.494Z,5.83
2018-12-29T05:34:55.488Z,5.85
2018-12-29T05:35:55.498Z,5.90
2018-12-29T05:36:55.463Z,5.89
2018-12-29T05:37:55.456Z,5.89
2018-12-29T05:38:55.454Z,5.91
2018-12-29T05:39:55.439Z,5.99
2018-12-29T05:40:55.446Z,5.85
2018-12-29T05:41:55.410Z,5.90
2018-12-29T05:42:55.400Z,5.90
2018-12-29T05:43:55.392Z,5.99
2018-12-29T05:44:55.388Z,5.93
2018-12-29T05:45:55.394Z,5.91
2018-12-29T05:46:55.355Z,5.93
2018-12-29T05:47:55.356Z,5.94
2018-12-29T05:48:55.336Z,5.91
2018-12-29T05:49:55.332Z,5.90
2018-12-29T05:50:55.345Z,5.89
2018-12-29T05:51:55.310Z,5.94
2018-12-29T05:52:55.297Z,5.93
2018-12-29T05:53:55.280Z,5.96
2018-12-29T05:54:55.282Z,6.01
2018-12-29T05:55:55.301Z,5.89
2018-12-29T05:56:55.256Z,5.93
2018-12-29T05:57:55.246Z,5.96
2018-12-29T05:58:55.235Z,5.96
2018-12-29T05:59:55.221Z,5.94
2018-12-29T06:00:55.209Z,5.83
2018-12-29T06:01:55.214Z,5.91
2018-12-29T06:02:55.187Z,5.90
2018-12-29T06:03:55.183Z,5.90
2018-12-29T06:04:55.173Z,5.96
2018-12-29T06:05:55.162Z,6.01
2018-12-29T06:06:55.172Z,5.89
2018-12-29T06:07:55.134Z,5.90
2018-12-29T06:08:55.129Z,5.93
2018-12-29T06:09:55.111Z,5.83
2018-12-29T06:10:55.102Z,5.99
2018-12-29T06:11:55.106Z,5.94
2018-12-29T06:12:55.080Z,6.00
2018-12-29T06:13:55.082Z,5.96
2018-12-29T06:14:55.061Z,6.00
2018-12-29T06:15:55.050Z,5.86
2018-12-29T06:16:55.064Z,5.90
2018-12-29T06:17:55.030Z,5.89
2018-12-29T06:18:55.023Z,5.86
2018-12-29T06:19:55.006Z,5.83
2018-12-29T06:20:54.999Z,5.89
2018-12-29T06:21:55.006Z,5.91
2018-12-29T06:22:54.974Z,5.96
2018-12-29T06:23:54.970Z,5.93
2018-12-29T06:24:54.968Z,5.94
2018-12-29T06:25:54.947Z,5.90
2018-12-29T06:26:54.948Z,5.97
2018-12-29T06:27:54.922Z,5.93
2018-12-29T06:28:54.915Z,5.86
2018-12-29T06:29:54.902Z,5.82
2018-12-29T06:30:54.899Z,5.89
2018-12-29T06:31:54.895Z,5.90
2018-12-29T06:32:54.876Z,5.97
2018-12-29T06:33:54.856Z,5.83
2018-12-29T06:34:54.852Z,5.89
2018-12-29T06:35:54.834Z,5.86
2018-12-29T06:36:54.855Z,5.83
2018-12-29T06:37:54.832Z,5.99
2018-12-29T06:38:54.808Z,5.97
2018-12-29T06:39:54.792Z,5.96
2018-12-29T06:40:54.791Z,5.93
2018-12-29T06:41:54.798Z,5.96
2018-12-29T06:42:54.771Z,5.96
2018-12-29T06:43:54.754Z,5.93
2018-12-29T06:44:54.738Z,5.96
2018-12-29T06:45:54.728Z,5.91
2018-12-29T06:46:54.732Z,5.86
2018-12-29T06:47:54.731Z,5.93
2018-12-29T06:48:54.703Z,5.85
2018-12-29T06:49:54.691Z,5.83
2018-12-29T06:50:54.676Z,5.89
2018-12-29T06:51:54.667Z,5.83
2018-12-29T06:52:54.672Z,5.75
2018-12-29T06:53:54.650Z,5.76
2018-12-29T06:54:54.643Z,5.79
2018-12-29T06:55:54.630Z,5.76
2018-12-29T06:56:54.613Z,5.71
2018-12-29T06:57:54.697Z,5.81
2018-12-29T06:58:54.596Z,5.81
2018-12-29T06:59:54.591Z,5.78
2018-12-29T07:00:54.587Z,5.83
2018-12-29T07:01:54.582Z,5.79
2018-12-29T07:02:54.579Z,5.78
2018-12-29T07:03:54.540Z,5.79
2018-12-29T07:04:54.533Z,5.75
2018-12-29T07:05:54.518Z,5.83
2018-12-29T07:06:54.515Z,5.82
2018-12-29T07:07:54.513Z,5.68
2018-12-29T07:08:54.487Z,5.78
2018-12-29T07:09:54.479Z,5.85
2018-12-29T07:10:54.469Z,5.81
2018-12-29T07:11:54.468Z,5.78
2018-12-29T07:12:54.461Z,5.74
2018-12-29T07:13:54.439Z,5.72
2018-12-29T07:14:54.421Z,5.85
2018-12-29T07:15:54.419Z,5.85
2018-12-29T07:16:55.905Z,5.93
2018-12-29T07:17:54.416Z,5.90
2018-12-29T07:18:54.399Z,5.96
2018-12-29T07:19:54.371Z,5.86
2018-12-29T07:20:54.357Z,5.79
2018-12-29T07:21:54.358Z,5.75
2018-12-29T07:22:54.372Z,5.76
2018-12-29T07:23:54.335Z,5.75
2018-12-29T07:24:54.323Z,5.71
2018-12-29T07:25:54.309Z,5.82
2018-12-29T07:26:54.297Z,5.78
2018-12-29T07:27:54.323Z,5.83
2018-12-29T07:28:54.286Z,5.78
2018-12-29T07:29:54.271Z,5.79
2018-12-29T07:30:54.257Z,5.81
2018-12-29T07:31:54.251Z,5.85
2018-12-29T07:32:54.235Z,5.78
2018-12-29T07:33:54.244Z,5.71
2018-12-29T07:34:54.217Z,5.67
2018-12-29T07:35:54.219Z,5.79
2018-12-29T07:36:54.191Z,5.81
2018-12-29T07:37:54.175Z,5.79
2018-12-29T07:38:54.197Z,5.81
2018-12-29T07:39:54.165Z,5.81
2018-12-29T07:40:54.151Z,5.86
2018-12-29T07:41:54.163Z,5.81
2018-12-29T07:42:54.129Z,5.82
2018-12-29T07:43:54.637Z,5.79
2018-12-29T07:44:54.104Z,5.75
2018-12-29T07:45:54.099Z,5.79
2018-12-29T07:46:54.093Z,5.82
2018-12-29T07:47:54.095Z,5.76
2018-12-29T07:48:54.215Z,5.72
2018-12-29T07:49:54.049Z,5.68
2018-12-29T07:50:54.050Z,5.74
2018-12-29T07:51:54.037Z,5.71
2018-12-29T07:52:54.035Z,5.67
2018-12-29T07:53:54.037Z,5.76
2018-12-29T07:54:53.995Z,5.76
2018-12-29T07:55:53.988Z,5.75
2018-12-29T07:56:53.979Z,5.79
2018-12-29T07:57:53.965Z,5.74
2018-12-29T07:58:53.995Z,5.83
2018-12-29T07:59:53.941Z,5.75
2018-12-29T08:00:53.930Z,5.89
2018-12-29T08:01:53.922Z,5.79
2018-12-29T08:02:53.929Z,5.83
2018-12-29T08:03:53.933Z,5.83
2018-12-29T08:04:53.909Z,5.89
2018-12-29T08:05:53.883Z,5.86
2018-12-29T08:06:53.869Z,5.85
2018-12-29T08:07:53.862Z,5.79
2018-12-29T08:08:53.884Z,5.82
2018-12-29T08:09:53.850Z,5.83
2018-12-29T08:10:53.846Z,5.78
2018-12-29T08:11:53.818Z,5.83
2018-12-29T08:12:53.818Z,5.79
2018-12-29T08:13:53.802Z,5.81
2018-12-29T08:14:53.810Z,5.79
2018-12-29T08:15:53.786Z,5.91
2018-12-29T08:16:56.981Z,5.89
2018-12-29T08:17:53.754Z,5.97
2018-12-29T08:18:53.748Z,5.91
2018-12-29T08:19:53.777Z,5.89
2018-12-29T08:20:53.718Z,5.86
2018-12-29T08:21:53.717Z,5.86
2018-12-29T08:22:53.729Z,5.82
2018-12-29T08:23:53.686Z,5.94
2018-12-29T08:24:53.694Z,5.81
2018-12-29T08:25:53.686Z,5.90
2018-12-29T08:26:53.661Z,5.89
2018-12-29T08:27:53.658Z,5.78
2018-12-29T08:28:53.642Z,5.79
2018-12-29T08:29:53.640Z,5.78
2018-12-29T08:30:53.634Z,5.75
2018-12-29T08:31:53.616Z,5.76
2018-12-29T08:32:53.598Z,5.76
2018-12-29T08:33:53.594Z,5.76
2018-12-29T08:34:53.596Z,5.75
2018-12-29T08:35:53.567Z,5.76
2018-12-29T08:36:53.567Z,5.67
2018-12-29T08:37:53.562Z,5.72
2018-12-29T08:38:53.583Z,5.68
2018-12-29T08:39:53.542Z,5.67
2018-12-29T08:40:53.516Z,5.67
2018-12-29T08:41:53.495Z,5.75
2018-12-29T08:42:53.484Z,5.68
2018-12-29T08:43:53.477Z,5.64
2018-12-29T08:44:53.482Z,5.65
2018-12-29T08:45:53.470Z,5.67
2018-12-29T08:46:53.445Z,5.72
2018-12-29T08:47:53.436Z,5.65
2018-12-29T08:48:53.424Z,5.64
2018-12-29T08:49:53.446Z,5.60
2018-12-29T08:50:53.415Z,5.78
2018-12-29T08:51:53.384Z,5.74
2018-12-29T08:52:53.390Z,5.79
2018-12-29T08:53:53.371Z,5.79
2018-12-29T08:54:53.376Z,5.83
2018-12-29T08:55:53.347Z,5.76
2018-12-29T08:56:53.359Z,5.78
2018-12-29T08:57:53.331Z,5.78
2018-12-29T08:58:53.322Z,5.78
2018-12-29T08:59:53.336Z,5.79
2018-12-29T09:00:53.307Z,5.75
2018-12-29T09:01:53.285Z,5.78
2018-12-29T09:02:53.293Z,5.79
2018-12-29T09:03:53.263Z,5.86
2018-12-29T09:04:53.296Z,5.91
2018-12-29T09:05:53.244Z,5.96
2018-12-29T09:06:53.289Z,6.00
2018-12-29T09:07:53.234Z,6.04
2018-12-29T09:08:53.219Z,6.06
2018-12-29T09:09:53.202Z,6.09
2018-12-29T09:10:53.209Z,6.18
2018-12-29T09:11:53.179Z,6.14
2018-12-29T09:12:53.183Z,6.25
2018-12-29T09:13:53.161Z,6.30
2018-12-29T09:14:53.174Z,6.17
2018-12-29T09:15:53.171Z,6.11
2018-12-29T09:16:53.129Z,6.04
2018-12-29T09:17:53.118Z,6.03
2018-12-29T09:18:53.102Z,6.06
2018-12-29T09:19:53.102Z,6.03
2018-12-29T09:20:53.111Z,6.06
2018-12-29T09:21:53.080Z,6.09
2018-12-29T09:22:53.059Z,6.12
2018-12-29T09:23:53.059Z,6.06
2018-12-29T09:24:53.043Z,6.09
2018-12-29T09:25:53.046Z,6.11
2018-12-29T09:26:53.015Z,6.00
2018-12-29T09:27:53.015Z,6.09
2018-12-29T09:28:53.002Z,6.04
2018-12-29T09:29:52.984Z,6.14
2018-12-29T09:30:53.019Z,6.12
2018-12-29T09:31:52.976Z,6.18
2018-12-29T09:32:52.995Z,6.14
2018-12-29T09:33:52.954Z,6.08
2018-12-29T09:34:52.941Z,6.03
2018-12-29T09:35:52.927Z,6.09
2018-12-29T09:36:52.932Z,6.03
2018-12-29T09:37:52.916Z,6.03
2018-12-29T09:38:52.895Z,6.06
2018-12-29T09:39:52.878Z,6.08
2018-12-29T09:40:52.885Z,6.04
2018-12-29T09:41:52.880Z,6.11
2018-12-29T09:42:52.850Z,6.04
2018-12-29T09:43:52.840Z,6.03
2018-12-29T09:44:52.831Z,6.01
2018-12-29T09:45:52.816Z,5.97
2018-12-29T09:46:52.849Z,6.09
2018-12-29T09:47:52.811Z,5.99
2018-12-29T09:48:52.795Z,6.00
2018-12-29T09:49:52.779Z,6.00
2018-12-29T09:50:52.763Z,5.93
2018-12-29T09:51:52.769Z,5.96
2018-12-29T09:52:52.740Z,5.97
2018-12-29T09:53:52.731Z,5.90
2018-12-29T09:54:52.728Z,6.09
2018-12-29T09:55:52.717Z,5.97
2018-12-29T09:56:52.744Z,6.08
2018-12-29T09:57:52.692Z,6.01
2018-12-29T09:58:52.683Z,6.00
2018-12-29T09:59:52.670Z,6.01
2018-12-29T10:00:52.673Z,6.08
2018-12-29T10:01:52.663Z,6.08
2018-12-29T10:02:52.639Z,6.12
2018-12-29T10:03:52.622Z,6.17
2018-12-29T10:04:52.615Z,6.17
2018-12-29T10:05:52.606Z,6.21
2018-12-29T10:06:52.621Z,6.18
2018-12-29T10:07:52.578Z,6.14
2018-12-29T10:08:52.577Z,6.15
2018-12-29T10:09:52.576Z,6.12
2018-12-29T10:10:52.551Z,6.18
2018-12-29T10:11:52.574Z,6.18
2018-12-29T10:12:52.529Z,6.15
2018-12-29T10:13:52.515Z,6.31
2018-12-29T10:14:52.508Z,6.14
2018-12-29T10:15:52.505Z,6.22
2018-12-29T10:16:52.503Z,6.17
2018-12-29T10:17:52.481Z,6.15
2018-12-29T10:18:52.473Z,6.17
2018-12-29T10:19:52.461Z,6.17
2018-12-29T10:20:52.467Z,6.27
2018-12-29T10:21:52.455Z,6.15
2018-12-29T10:22:52.428Z,6.14
2018-12-29T10:23:52.423Z,6.19
2018-12-29T10:24:52.414Z,6.21
2018-12-29T10:25:52.424Z,6.17
2018-12-29T10:26:52.397Z,6.22
2018-12-29T10:27:52.376Z,6.22
2018-12-29T10:28:52.373Z,6.22
2018-12-29T10:29:52.352Z,6.30
2018-12-29T10:30:52.347Z,6.34
2018-12-29T10:31:52.341Z,6.38
2018-12-29T10:32:52.323Z,6.37
2018-12-29T10:33:52.305Z,6.34
2018-12-29T10:34:52.303Z,6.31
2018-12-29T10:35:52.290Z,6.30
2018-12-29T10:36:52.290Z,6.33
2018-12-29T10:37:52.258Z,6.18
2018-12-29T10:38:52.260Z,6.25
2018-12-29T10:39:52.241Z,6.19
2018-12-29T10:40:52.237Z,6.22
2018-12-29T10:41:52.243Z,6.27
2018-12-29T10:42:52.205Z,6.30
2018-12-29T10:43:52.197Z,6.17
2018-12-29T10:44:52.189Z,6.21
2018-12-29T10:45:52.183Z,6.25
2018-12-29T10:46:52.186Z,6.25
2018-12-29T10:47:52.157Z,6.18
2018-12-29T10:48:52.143Z,6.25
2018-12-29T10:49:52.138Z,6.25
2018-12-29T10:50:52.129Z,6.14
2018-12-29T10:51:52.187Z,6.19
2018-12-29T10:52:52.104Z,6.22
2018-12-29T10:53:52.103Z,6.25
2018-12-29T10:54:52.082Z,6.33
2018-12-29T10:55:52.072Z,6.25
2018-12-29T10:56:52.098Z,6.19
2018-12-29T10:57:52.049Z,6.22
2018-12-29T10:58:52.035Z,6.12
2018-12-29T10:59:52.037Z,6.30
2018-12-29T11:00:52.017Z,6.31
2018-12-29T11:01:52.033Z,6.25
2018-12-29T11:02:52.016Z,6.30
2018-12-29T11:03:51.987Z,6.22
2018-12-29T11:04:52.000Z,6.30
2018-12-29T11:05:51.989Z,6.33
2018-12-29T11:06:51.955Z,6.33
2018-12-29T11:07:51.989Z,6.21
2018-12-29T11:08:51.927Z,6.28
2018-12-29T11:09:51.929Z,6.36
2018-12-29T11:11:52.993Z,6.31
2018-12-29T11:12:51.927Z,6.31
2018-12-29T11:13:51.877Z,6.30
2018-12-29T11:15:12.865Z,6.28
2018-12-29T11:15:51.855Z,6.30
2018-12-29T11:16:51.849Z,6.37
2018-12-29T11:17:51.855Z,6.36
2018-12-29T11:18:51.828Z,6.33
2018-12-29T11:19:51.810Z,6.38
2018-12-29T11:20:51.813Z,6.30
2018-12-29T11:21:51.793Z,6.38
2018-12-29T11:22:51.800Z,6.38
2018-12-29T11:23:52.645Z,6.31
2018-12-29T11:24:51.767Z,6.49
2018-12-29T11:25:51.755Z,6.37
2018-12-29T11:26:51.753Z,6.31
2018-12-29T11:27:51.749Z,6.46
2018-12-29T11:28:51.720Z,6.43
2018-12-29T11:29:51.708Z,6.46
2018-12-29T11:30:51.695Z,6.48
2018-12-29T11:31:51.693Z,6.48
2018-12-29T11:32:51.751Z,6.56
2018-12-29T11:33:51.667Z,6.58
2018-12-29T11:34:51.702Z,6.61
2018-12-29T11:35:51.635Z,6.62
2018-12-29T11:36:51.661Z,6.70
2018-12-29T11:37:51.659Z,6.71
2018-12-29T11:38:51.719Z,6.76
2018-12-29T11:39:51.623Z,6.74
2018-12-29T11:40:51.605Z,6.74
2018-12-29T11:41:51.585Z,6.64
2018-12-29T11:42:51.641Z,6.73
2018-12-29T11:43:51.568Z,6.76
2018-12-29T11:44:51.612Z,6.74
2018-12-29T11:45:51.526Z,6.73
2018-12-29T11:46:51.565Z,6.79
2018-12-29T11:47:51.604Z,6.80
2018-12-29T11:48:51.517Z,6.80
2018-12-29T11:49:51.532Z,6.79
2018-12-29T11:50:51.472Z,6.67
2018-12-29T11:51:51.509Z,6.67
2018-12-29T11:52:51.509Z,6.73
2018-12-29T11:53:51.469Z,6.59
2018-12-29T11:54:51.444Z,6.70
2018-12-29T11:55:51.447Z,6.73
2018-12-29T11:56:51.429Z,6.79
2018-12-29T11:57:51.416Z,6.77
2018-12-29T11:58:51.415Z,6.74
2018-12-29T11:59:51.381Z,6.80
2018-12-29T12:00:51.382Z,6.69
2018-12-29T12:01:51.368Z,6.77
2018-12-29T12:02:51.353Z,6.89
2018-12-29T12:03:51.361Z,6.84
2018-12-29T12:04:51.333Z,6.87
2018-12-29T12:05:51.315Z,6.85
2018-12-29T12:06:51.319Z,6.85
2018-12-29T12:07:51.300Z,6.81
2018-12-29T12:08:51.327Z,6.87
2018-12-29T12:09:51.284Z,6.91
2018-12-29T12:10:51.269Z,6.87
2018-12-29T12:11:51.255Z,6.76
2018-12-29T12:12:51.319Z,6.77
2018-12-29T12:13:51.258Z,6.89
2018-12-29T12:14:51.231Z,6.80
2018-12-29T12:15:51.215Z,6.77
2018-12-29T12:16:51.201Z,6.76
2018-12-29T12:17:57.442Z,6.77
2018-12-29T12:18:52.203Z,6.74
2018-12-29T12:19:51.174Z,6.74
2018-12-29T12:20:51.163Z,6.85
2018-12-29T12:21:51.166Z,6.76
2018-12-29T12:22:51.138Z,6.77
2018-12-29T12:23:51.153Z,6.76
2018-12-29T12:24:51.117Z,6.84
2018-12-29T12:25:51.115Z,6.77
2018-12-29T12:26:51.097Z,6.77
2018-12-29T12:27:51.087Z,6.84
2018-12-29T12:28:51.125Z,6.73
2018-12-29T12:29:51.067Z,6.73
2018-12-29T12:30:51.104Z,6.80
2018-12-29T12:31:51.043Z,6.84
2018-12-29T12:32:51.073Z,6.74
2018-12-29T12:33:51.034Z,6.85
2018-12-29T12:34:51.073Z,6.85
2018-12-29T12:35:51.037Z,6.73
2018-12-29T12:36:50.988Z,6.74
2018-12-29T12:37:50.976Z,6.76
2018-12-29T12:38:51.021Z,6.79
2018-12-29T12:39:51.048Z,6.61
2018-12-29T12:40:50.954Z,6.59
2018-12-29T12:41:50.970Z,6.64
2018-12-29T12:42:50.936Z,6.71
2018-12-29T12:43:50.941Z,6.73
2018-12-29T12:44:51.049Z,6.64
2018-12-29T12:45:50.892Z,6.67
2018-12-29T12:46:50.901Z,6.67
2018-12-29T12:47:50.936Z,6.67
2018-12-29T12:48:50.863Z,6.66
2018-12-29T12:49:51.096Z,6.66
2018-12-29T12:50:50.870Z,6.80
2018-12-29T12:51:50.846Z,6.76
2018-12-29T12:52:50.823Z,6.81
2018-12-29T12:53:50.862Z,6.74
2018-12-29T12:54:50.883Z,6.66
2018-12-29T12:55:51.617Z,6.74
2018-12-29T12:56:50.790Z,6.69
2018-12-29T12:57:50.771Z,6.79
2018-12-29T12:58:50.764Z,6.79
2018-12-29T12:59:50.769Z,6.80
2018-12-29T13:00:50.735Z,6.80
2018-12-29T13:01:50.730Z,6.81
2018-12-29T13:02:50.711Z,6.76
2018-12-29T13:03:50.702Z,6.87
2018-12-29T13:04:50.710Z,6.80
2018-12-29T13:05:50.689Z,6.76
2018-12-29T13:06:50.672Z,6.85
2018-12-29T13:07:50.686Z,6.89
2018-12-29T13:08:50.675Z,6.87
2018-12-29T13:09:50.669Z,6.80
2018-12-29T13:10:50.634Z,6.77
2018-12-29T13:11:50.627Z,6.80
2018-12-29T13:12:50.606Z,6.74
2018-12-29T13:13:50.598Z,6.87
2018-12-29T13:14:50.614Z,6.85
2018-12-29T13:15:50.578Z,6.84
2018-12-29T13:16:50.590Z,6.85
2018-12-29T13:17:50.548Z,6.85
2018-12-29T13:18:50.538Z,6.91
2018-12-29T13:19:50.535Z,6.88